Airfield :
LOGIN :

Register | Disclaimer

   EN    FR    IT 

 










Legend :    VFR   Marginal VFR   IFR   Intensive IFR   Very Intensive IFR
Visi :
Ceiling :
>= 8 km
>= 3000ft
5 to 8 km
1000 to 3000 ft
1500m to 5 km
500 to 1000 ft
800 to 1500m
200 to 500 ft
< 800m
< 200 ft
Symbols :   Thunderstorms  Fog  Heavy snow  Heavy precipitations  Wind > 20 kt
SIGMETs :     Misc.  Thunderstorms  Icing  Turbulence  Mountain Waves  Volcanic Ashes






- Airport Elevation : 270 ft
- IATA code : OXF


EGTK - Oxford (Kidlington)

CURRENT METAR :
  • 181320Z 26010KT 220V280 9999 FEW043 12/02 Q1022

EXPIRED METARs :
  • 181250Z 25009KT 230V290 9999 FEW029 12/02 Q1023
  • 181220Z 25009KT 200V290 9999 FEW034 12/02 Q1023
  • 181150Z 27008KT 230V320 CAVOK 11/01 Q1023
  • 181120Z 24006KT 210V270 9999 FEW035 11/01 Q1023
  • 181050Z 23006KT 180V290 9999 FEW030 11/02 Q1024
  • 181020Z 27006KT 230V290 9999 FEW030 09/01 Q1024
  • 180950Z VRB03KT 9999 SCT026 10/02 Q1024
  • 180920Z VRB03KT 9999 FEW025 09/02 Q1024
  • 180850Z VRB03KT 9999 FEW023 09/03 Q1024

TAF TAF EGTK
Valid from the 18 at 12:00 until the 18 at 21:00 UTC


181103Z 1812/1821 26009KT 9999 SCT030
TEMPO 1818/1821 8000 -RA
PROB30
TEMPO 1818/1821 RA



MET'MAP, your aeronautical weather chart ! - Copyright ORBIFLY December 2007 - Disclaimer

ORBIFLY MET'MAP TEAM :

Programming & Development : Alexandra Zaïnal
Original concept : Baudouin d'Aumeries
Technical & hardware support : Manuel Goepfert
Assistance : Marc-Olivier Méhu




SOURCES & CREDITS :

   NOAA